sensor_id;sensor_type;location;lat;lon;timestamp;P1;durP1;ratioP1;P2;durP2;ratioP2
14153;SDS011;7157;53.144;7.570;2022-10-16T00:01:39;3.97;;;1.25;;
14153;SDS011;7157;53.144;7.570;2022-10-16T00:11:42;4.80;;;1.30;;
14153;SDS011;7157;53.144;7.570;2022-10-16T00:21:46;4.43;;;1.45;;
14153;SDS011;7157;53.144;7.570;2022-10-16T00:31:49;4.30;;;1.27;;
14153;SDS011;7157;53.144;7.570;2022-10-16T00:41:53;5.18;;;1.20;;
14153;SDS011;7157;53.144;7.570;2022-10-16T00:51:55;25.75;;;1.95;;
14153;SDS011;7157;53.144;7.570;2022-10-16T01:01:59;5.88;;;1.55;;
14153;SDS011;7157;53.144;7.570;2022-10-16T01:12:05;5.68;;;1.75;;
14153;SDS011;7157;53.144;7.570;2022-10-16T01:22:14;7.75;;;1.75;;
14153;SDS011;7157;53.144;7.570;2022-10-16T01:32:21;3.78;;;1.73;;
14153;SDS011;7157;53.144;7.570;2022-10-16T01:42:29;7.53;;;1.80;;
14153;SDS011;7157;53.144;7.570;2022-10-16T01:52:38;11.15;;;2.20;;
14153;SDS011;7157;53.144;7.570;2022-10-16T02:02:44;3.58;;;1.70;;
14153;SDS011;7157;53.144;7.570;2022-10-16T02:12:55;5.70;;;1.60;;
14153;SDS011;7157;53.144;7.570;2022-10-16T02:23:00;7.20;;;1.67;;
14153;SDS011;7157;53.144;7.570;2022-10-16T02:33:07;3.55;;;1.70;;
14153;SDS011;7157;53.144;7.570;2022-10-16T02:43:12;7.68;;;2.45;;
14153;SDS011;7157;53.144;7.570;2022-10-16T02:53:16;5.10;;;1.40;;
14153;SDS011;7157;53.144;7.570;2022-10-16T03:03:19;3.25;;;1.40;;
14153;SDS011;7157;53.144;7.570;2022-10-16T03:13:23;8.15;;;1.67;;
14153;SDS011;7157;53.144;7.570;2022-10-16T03:23:26;8.38;;;2.05;;
14153;SDS011;7157;53.144;7.570;2022-10-16T03:33:30;6.53;;;1.25;;
14153;SDS011;7157;53.144;7.570;2022-10-16T03:43:33;7.57;;;1.33;;
14153;SDS011;7157;53.144;7.570;2022-10-16T03:53:37;5.07;;;1.40;;
14153;SDS011;7157;53.144;7.570;2022-10-16T04:03:39;4.13;;;1.20;;
14153;SDS011;7157;53.144;7.570;2022-10-16T04:13:43;4.63;;;1.40;;
14153;SDS011;7157;53.144;7.570;2022-10-16T04:23:46;4.40;;;1.20;;
14153;SDS011;7157;53.144;7.570;2022-10-16T04:33:50;3.20;;;1.58;;
14153;SDS011;7157;53.144;7.570;2022-10-16T04:43:53;4.68;;;1.60;;
14153;SDS011;7157;53.144;7.570;2022-10-16T04:53:57;7.30;;;1.55;;
14153;SDS011;7157;53.144;7.570;2022-10-16T05:03:59;5.22;;;1.77;;
14153;SDS011;7157;53.144;7.570;2022-10-16T05:14:03;5.40;;;2.00;;
14153;SDS011;7157;53.144;7.570;2022-10-16T05:24:06;2.90;;;1.40;;
14153;SDS011;7157;53.144;7.570;2022-10-16T05:34:11;7.07;;;1.90;;
14153;SDS011;7157;53.144;7.570;2022-10-16T05:44:14;6.03;;;1.92;;
14153;SDS011;7157;53.144;7.570;2022-10-16T05:54:18;7.75;;;2.50;;
14153;SDS011;7157;53.144;7.570;2022-10-16T06:04:21;4.15;;;2.22;;
14153;SDS011;7157;53.144;7.570;2022-10-16T06:14:25;6.40;;;2.33;;
14153;SDS011;7157;53.144;7.570;2022-10-16T06:24:28;5.20;;;2.38;;
14153;SDS011;7157;53.144;7.570;2022-10-16T06:34:32;5.90;;;2.42;;
14153;SDS011;7157;53.144;7.570;2022-10-16T06:44:35;7.13;;;2.90;;
14153;SDS011;7157;53.144;7.570;2022-10-16T06:54:39;5.45;;;2.33;;
14153;SDS011;7157;53.144;7.570;2022-10-16T07:04:42;6.28;;;2.70;;
14153;SDS011;7157;53.144;7.570;2022-10-16T07:14:46;7.40;;;2.35;;
14153;SDS011;7157;53.144;7.570;2022-10-16T07:24:49;5.35;;;2.17;;
14153;SDS011;7157;53.144;7.570;2022-10-16T07:34:54;6.70;;;2.22;;
14153;SDS011;7157;53.144;7.570;2022-10-16T07:44:57;4.10;;;1.77;;
14153;SDS011;7157;53.144;7.570;2022-10-16T07:55:01;6.35;;;1.73;;
14153;SDS011;7157;53.144;7.570;2022-10-16T08:05:04;7.80;;;1.90;;
14153;SDS011;7157;53.144;7.570;2022-10-16T08:15:09;7.32;;;1.95;;
14153;SDS011;7157;53.144;7.570;2022-10-16T08:25:13;3.47;;;1.35;;
14153;SDS011;7157;53.144;7.570;2022-10-16T08:35:17;3.85;;;1.70;;
14153;SDS011;7157;53.144;7.570;2022-10-16T08:55:46;5.32;;;1.40;;
14153;SDS011;7157;53.144;7.570;2022-10-16T09:06:00;6.15;;;1.63;;
14153;SDS011;7157;53.144;7.570;2022-10-16T09:16:18;8.20;;;1.40;;
14153;SDS011;7157;53.144;7.570;2022-10-16T09:26:23;3.17;;;1.10;;
14153;SDS011;7157;53.144;7.570;2022-10-16T09:36:28;5.47;;;1.10;;
14153;SDS011;7157;53.144;7.570;2022-10-16T09:46:35;4.78;;;0.82;;
14153;SDS011;7157;53.144;7.570;2022-10-16T09:56:40;3.60;;;0.90;;
14153;SDS011;7157;53.144;7.570;2022-10-16T10:06:44;5.10;;;1.45;;
14153;SDS011;7157;53.144;7.570;2022-10-16T10:16:50;4.78;;;1.10;;
14153;SDS011;7157;53.144;7.570;2022-10-16T10:26:54;7.93;;;1.08;;
14153;SDS011;7157;53.144;7.570;2022-10-16T10:37:08;4.90;;;1.33;;
14153;SDS011;7157;53.144;7.570;2022-10-16T10:47:24;11.48;;;1.35;;
14153;SDS011;7157;53.144;7.570;2022-10-16T10:57:35;3.70;;;1.00;;
14153;SDS011;7157;53.144;7.570;2022-10-16T11:07:47;8.13;;;1.60;;
14153;SDS011;7157;53.144;7.570;2022-10-16T11:17:57;6.68;;;1.50;;
14153;SDS011;7157;53.144;7.570;2022-10-16T11:28:07;6.30;;;1.67;;
14153;SDS011;7157;53.144;7.570;2022-10-16T11:38:18;8.85;;;1.73;;
14153;SDS011;7157;53.144;7.570;2022-10-16T11:48:30;7.70;;;1.83;;
14153;SDS011;7157;53.144;7.570;2022-10-16T11:58:41;7.05;;;1.48;;
14153;SDS011;7157;53.144;7.570;2022-10-16T12:08:51;8.43;;;1.35;;
14153;SDS011;7157;53.144;7.570;2022-10-16T12:19:12;7.55;;;1.70;;
14153;SDS011;7157;53.144;7.570;2022-10-16T12:29:22;8.15;;;1.30;;
14153;SDS011;7157;53.144;7.570;2022-10-16T12:39:31;4.75;;;1.02;;
14153;SDS011;7157;53.144;7.570;2022-10-16T12:49:36;6.20;;;1.33;;
14153;SDS011;7157;53.144;7.570;2022-10-16T12:59:43;10.63;;;2.03;;
14153;SDS011;7157;53.144;7.570;2022-10-16T13:09:55;6.28;;;1.52;;
14153;SDS011;7157;53.144;7.570;2022-10-16T13:20:10;6.28;;;1.25;;
14153;SDS011;7157;53.144;7.570;2022-10-16T13:30:20;3.53;;;0.80;;
14153;SDS011;7157;53.144;7.570;2022-10-16T13:40:32;6.20;;;1.40;;
14153;SDS011;7157;53.144;7.570;2022-10-16T13:50:35;15.25;;;1.73;;
14153;SDS011;7157;53.144;7.570;2022-10-16T14:00:40;7.43;;;1.15;;
14153;SDS011;7157;53.144;7.570;2022-10-16T14:10:46;9.70;;;1.90;;
14153;SDS011;7157;53.144;7.570;2022-10-16T14:20:52;6.60;;;1.00;;
14153;SDS011;7157;53.144;7.570;2022-10-16T14:30:59;9.48;;;1.52;;
14153;SDS011;7157;53.144;7.570;2022-10-16T14:41:04;6.25;;;1.23;;
14153;SDS011;7157;53.144;7.570;2022-10-16T14:51:08;5.35;;;1.20;;
14153;SDS011;7157;53.144;7.570;2022-10-16T15:01:17;9.35;;;1.75;;
14153;SDS011;7157;53.144;7.570;2022-10-16T15:11:20;5.82;;;1.33;;
14153;SDS011;7157;53.144;7.570;2022-10-16T15:21:25;9.35;;;1.58;;
14153;SDS011;7157;53.144;7.570;2022-10-16T15:31:31;9.18;;;1.77;;
14153;SDS011;7157;53.144;7.570;2022-10-16T15:41:35;8.38;;;1.50;;
14153;SDS011;7157;53.144;7.570;2022-10-16T15:51:38;8.82;;;1.77;;
14153;SDS011;7157;53.144;7.570;2022-10-16T16:01:43;14.93;;;2.20;;
14153;SDS011;7157;53.144;7.570;2022-10-16T16:11:45;10.82;;;2.35;;
14153;SDS011;7157;53.144;7.570;2022-10-16T16:21:50;9.45;;;2.72;;
14153;SDS011;7157;53.144;7.570;2022-10-16T16:31:53;11.13;;;3.40;;
14153;SDS011;7157;53.144;7.570;2022-10-16T16:41:59;9.75;;;3.90;;
14153;SDS011;7157;53.144;7.570;2022-10-16T16:52:03;7.60;;;3.13;;
14153;SDS011;7157;53.144;7.570;2022-10-16T17:02:08;11.57;;;3.40;;
14153;SDS011;7157;53.144;7.570;2022-10-16T17:12:11;12.73;;;3.90;;
14153;SDS011;7157;53.144;7.570;2022-10-16T17:22:15;15.95;;;4.75;;
14153;SDS011;7157;53.144;7.570;2022-10-16T17:32:18;11.60;;;4.93;;
14153;SDS011;7157;53.144;7.570;2022-10-16T17:42:23;10.48;;;4.40;;
14153;SDS011;7157;53.144;7.570;2022-10-16T17:52:26;16.20;;;4.88;;
14153;SDS011;7157;53.144;7.570;2022-10-16T18:02:31;5.90;;;3.10;;
14153;SDS011;7157;53.144;7.570;2022-10-16T18:12:34;13.25;;;4.68;;
14153;SDS011;7157;53.144;7.570;2022-10-16T18:22:38;16.40;;;7.28;;
14153;SDS011;7157;53.144;7.570;2022-10-16T18:32:40;18.70;;;6.63;;
14153;SDS011;7157;53.144;7.570;2022-10-16T18:42:44;12.50;;;6.25;;
14153;SDS011;7157;53.144;7.570;2022-10-16T18:52:47;20.02;;;6.32;;
14153;SDS011;7157;53.144;7.570;2022-10-16T19:02:51;14.57;;;6.28;;
14153;SDS011;7157;53.144;7.570;2022-10-16T19:12:54;12.40;;;5.53;;
14153;SDS011;7157;53.144;7.570;2022-10-16T19:22:58;12.27;;;5.35;;
14153;SDS011;7157;53.144;7.570;2022-10-16T19:33:01;13.40;;;4.82;;
14153;SDS011;7157;53.144;7.570;2022-10-16T19:43:04;13.68;;;5.00;;
14153;SDS011;7157;53.144;7.570;2022-10-16T19:53:07;13.93;;;5.22;;
14153;SDS011;7157;53.144;7.570;2022-10-16T20:03:11;15.63;;;5.70;;
14153;SDS011;7157;53.144;7.570;2022-10-16T20:13:14;24.33;;;7.75;;
14153;SDS011;7157;53.144;7.570;2022-10-16T20:23:18;17.52;;;7.63;;
14153;SDS011;7157;53.144;7.570;2022-10-16T20:33:21;16.55;;;7.07;;
14153;SDS011;7157;53.144;7.570;2022-10-16T20:43:25;11.38;;;6.25;;
14153;SDS011;7157;53.144;7.570;2022-10-16T20:53:28;12.20;;;6.28;;
14153;SDS011;7157;53.144;7.570;2022-10-16T21:03:32;17.92;;;7.03;;
14153;SDS011;7157;53.144;7.570;2022-10-16T21:13:34;16.25;;;6.80;;
14153;SDS011;7157;53.144;7.570;2022-10-16T21:23:39;14.35;;;7.45;;
14153;SDS011;7157;53.144;7.570;2022-10-16T21:33:42;15.55;;;5.85;;
14153;SDS011;7157;53.144;7.570;2022-10-16T21:43:46;15.82;;;6.15;;
14153;SDS011;7157;53.144;7.570;2022-10-16T21:53:49;12.68;;;5.55;;
14153;SDS011;7157;53.144;7.570;2022-10-16T22:03:53;16.58;;;5.25;;
14153;SDS011;7157;53.144;7.570;2022-10-16T22:13:56;14.10;;;5.07;;
14153;SDS011;7157;53.144;7.570;2022-10-16T22:24:00;20.75;;;5.30;;
14153;SDS011;7157;53.144;7.570;2022-10-16T22:34:03;10.15;;;5.03;;
14153;SDS011;7157;53.144;7.570;2022-10-16T22:44:10;16.15;;;5.65;;
14153;SDS011;7157;53.144;7.570;2022-10-16T22:54:13;13.50;;;4.88;;
14153;SDS011;7157;53.144;7.570;2022-10-16T23:04:17;20.77;;;4.82;;
14153;SDS011;7157;53.144;7.570;2022-10-16T23:14:20;11.40;;;4.75;;
14153;SDS011;7157;53.144;7.570;2022-10-16T23:24:24;9.55;;;4.78;;
14153;SDS011;7157;53.144;7.570;2022-10-16T23:34:27;17.67;;;5.10;;
14153;SDS011;7157;53.144;7.570;2022-10-16T23:44:31;9.20;;;4.60;;
14153;SDS011;7157;53.144;7.570;2022-10-16T23:54:34;11.27;;;4.97;;
